Reedville, VA (22539)

5:02 PM EST on January 27, 2015 (GMT -0500)
Wicomico Church | Change Station
CLOSE
Current Station
Personal Weather Station
Location: Heathsville, VA
Elevation: 13 ft
Nearby Weather Stations

Elev 13 ft 37.81 °N, 76.31 °W | Updated 5 seconds ago

Partly Cloudy
Partly Cloudy
34.3 °F
Feels Like 31 °F
N
4.1
Wind Variable Wind from West
Gusts 9.8 mph

Today
High -- | Low -- °F
--% Chance of Precip.
Yesterday
High -- | Low -- °F
Precip. -- in
7:13 AM 5:22 PM
First Quarter, 58% visible
Pressure 29.81 in
Visibility 10.0 miles
Clouds Clear
Windchill 31 °F
Dew Point 23 °F
Humidity 62%
Rainfall 0.00 in
Snow Depth Not available.
UV 0 out of 12
Pollen .40 out of 12
Air Quality Not available.
Flu Activity Not available.
METAR KNUI 272153Z AUTO 30009G18KT 10SM CLR 01/M06 A2980 RMK AO2 SLP092 T00111056

More Conditions Fewer Conditions

Pressure 29.81 in
Visibility 10.0 miles
Clouds Clear
Windchill 31 °F
Dew Point 23 °F
Humidity 62%
Rainfall 0.00 in
Snow Depth Not available.
UV 0 out of 12
Pollen .40 out of 12
Air Quality Not available.
Flu Activity Not available.
METAR KNUI 272153Z AUTO 30009G18KT 10SM CLR 01/M06 A2980 RMK AO2 SLP092 T00111056

More Conditions Fewer Conditions

10-Day Weather Forecast

Almanac

Astronomy

Jan. 27, 2015 Rise Set
Actual Time
Civil Twilight
Nautical Twilight
Astronomical Twilight
Moon
Length of Visible Light
Length of Day
Tomorrow will be .
, % of the Moon is Illuminated

Today's Extremes

State Highs State Lows

Community

WunderPhotos

Upload Photos

1,790,921 photos uploaded!

WunderBlogs® & News

Nearby

Air Quality

  Air Quality AQ Index Pollutant
Not available.

Snow Depth

Station Depth Elevation

Earthquake Activity

City Distance Mag. Time & Date
Minimum magnitude displayed is 2.5.

Coastal Water Temperatures

Place Temperature

Nearby Weather Stations